Terminal Aerodrome Forecast
Issued by NWS

Home | Current Version | Previous Version | Text Only | Print | Product List | Glossary On
Versions: 1 2 3 4 5 6 7 8 9 10 11 12 13 14 15
891
FTUS46 KLOX 180543
TAFSBA
TAF
KSBA 180543Z 1806/1906 VRB03KT P6SM BKN250
     FM181100 10004KT P6SM BKN015 OVC250
     FM181600 10007KT P6SM SCT015 BKN150
     FM182200 12010KT P6SM -SHRA BKN020 BKN040
     FM190300 12015KT 5SM -RA BR OVC015=

USA.gov is the U.S. government's official web portal to all federal, state and local government web resources and services.